sensor_id;sensor_type;location;lat;lon;timestamp;P1;durP1;ratioP1;P2;durP2;ratioP2
14139;SDS011;7150;53.514;9.988;2023-03-12T00:00:33;7.00;;;2.43;;
14139;SDS011;7150;53.514;9.988;2023-03-12T00:02:58;2.23;;;1.70;;
14139;SDS011;7150;53.514;9.988;2023-03-12T00:05:24;6.27;;;2.00;;
14139;SDS011;7150;53.514;9.988;2023-03-12T00:07:50;3.00;;;1.83;;
14139;SDS011;7150;53.514;9.988;2023-03-12T00:10:17;3.07;;;1.97;;
14139;SDS011;7150;53.514;9.988;2023-03-12T00:12:43;8.77;;;3.20;;
14139;SDS011;7150;53.514;9.988;2023-03-12T00:15:09;6.67;;;2.67;;
14139;SDS011;7150;53.514;9.988;2023-03-12T00:17:34;4.80;;;2.70;;
14139;SDS011;7150;53.514;9.988;2023-03-12T00:20:00;4.53;;;2.63;;
14139;SDS011;7150;53.514;9.988;2023-03-12T00:22:26;5.47;;;2.73;;
14139;SDS011;7150;53.514;9.988;2023-03-12T00:24:52;5.73;;;2.33;;
14139;SDS011;7150;53.514;9.988;2023-03-12T00:27:19;5.57;;;2.87;;
14139;SDS011;7150;53.514;9.988;2023-03-12T00:29:45;4.00;;;2.90;;
14139;SDS011;7150;53.514;9.988;2023-03-12T00:32:11;3.10;;;2.37;;
14139;SDS011;7150;53.514;9.988;2023-03-12T00:34:37;5.37;;;2.80;;
14139;SDS011;7150;53.514;9.988;2023-03-12T00:37:04;3.87;;;2.90;;
14139;SDS011;7150;53.514;9.988;2023-03-12T00:39:29;5.67;;;3.10;;
14139;SDS011;7150;53.514;9.988;2023-03-12T00:41:56;4.63;;;3.27;;
14139;SDS011;7150;53.514;9.988;2023-03-12T00:44:21;5.10;;;3.20;;
14139;SDS011;7150;53.514;9.988;2023-03-12T00:46:47;5.93;;;3.80;;
14139;SDS011;7150;53.514;9.988;2023-03-12T00:49:12;5.93;;;3.30;;
14139;SDS011;7150;53.514;9.988;2023-03-12T00:51:38;6.43;;;3.30;;
14139;SDS011;7150;53.514;9.988;2023-03-12T00:54:03;6.87;;;3.20;;
14139;SDS011;7150;53.514;9.988;2023-03-12T00:56:29;6.37;;;3.57;;
14139;SDS011;7150;53.514;9.988;2023-03-12T00:58:55;5.43;;;3.47;;
14139;SDS011;7150;53.514;9.988;2023-03-12T01:01:20;5.00;;;3.40;;
14139;SDS011;7150;53.514;9.988;2023-03-12T01:03:46;7.67;;;3.80;;
14139;SDS011;7150;53.514;9.988;2023-03-12T01:06:16;7.93;;;4.73;;
14139;SDS011;7150;53.514;9.988;2023-03-12T01:08:42;4.13;;;3.00;;
14139;SDS011;7150;53.514;9.988;2023-03-12T01:11:11;6.37;;;3.97;;
14139;SDS011;7150;53.514;9.988;2023-03-12T01:13:37;4.30;;;3.07;;
14139;SDS011;7150;53.514;9.988;2023-03-12T01:16:03;5.90;;;3.07;;
14139;SDS011;7150;53.514;9.988;2023-03-12T01:18:29;5.67;;;2.63;;
14139;SDS011;7150;53.514;9.988;2023-03-12T01:20:54;7.97;;;2.90;;
14139;SDS011;7150;53.514;9.988;2023-03-12T01:23:19;3.93;;;3.07;;
14139;SDS011;7150;53.514;9.988;2023-03-12T01:25:45;7.70;;;4.00;;
14139;SDS011;7150;53.514;9.988;2023-03-12T01:28:11;4.73;;;2.77;;
14139;SDS011;7150;53.514;9.988;2023-03-12T01:30:37;5.70;;;2.83;;
14139;SDS011;7150;53.514;9.988;2023-03-12T01:33:03;4.63;;;3.23;;
14139;SDS011;7150;53.514;9.988;2023-03-12T01:35:29;5.90;;;3.17;;
14139;SDS011;7150;53.514;9.988;2023-03-12T01:37:54;4.27;;;3.27;;
14139;SDS011;7150;53.514;9.988;2023-03-12T01:40:21;6.37;;;3.00;;
14139;SDS011;7150;53.514;9.988;2023-03-12T01:42:56;6.60;;;3.40;;
14139;SDS011;7150;53.514;9.988;2023-03-12T01:48:19;5.23;;;3.33;;
14139;SDS011;7150;53.514;9.988;2023-03-12T01:50:45;4.23;;;2.87;;
14139;SDS011;7150;53.514;9.988;2023-03-12T01:53:10;4.40;;;2.97;;
14139;SDS011;7150;53.514;9.988;2023-03-12T01:55:36;4.97;;;3.23;;
14139;SDS011;7150;53.514;9.988;2023-03-12T01:58:02;6.43;;;2.87;;
14139;SDS011;7150;53.514;9.988;2023-03-12T02:00:30;5.03;;;2.50;;
14139;SDS011;7150;53.514;9.988;2023-03-12T02:03:01;5.90;;;2.50;;
14139;SDS011;7150;53.514;9.988;2023-03-12T02:05:32;9.57;;;2.87;;
14139;SDS011;7150;53.514;9.988;2023-03-12T02:08:08;4.90;;;2.70;;
14139;SDS011;7150;53.514;9.988;2023-03-12T02:10:35;4.80;;;2.60;;
14139;SDS011;7150;53.514;9.988;2023-03-12T02:13:01;5.77;;;3.00;;
14139;SDS011;7150;53.514;9.988;2023-03-12T02:15:26;3.30;;;2.50;;
14139;SDS011;7150;53.514;9.988;2023-03-12T02:17:52;6.00;;;3.17;;
14139;SDS011;7150;53.514;9.988;2023-03-12T02:23:09;4.37;;;2.87;;
14139;SDS011;7150;53.514;9.988;2023-03-12T02:25:48;4.93;;;2.60;;
14139;SDS011;7150;53.514;9.988;2023-03-12T02:28:17;4.93;;;2.63;;
14139;SDS011;7150;53.514;9.988;2023-03-12T02:30:46;4.77;;;2.73;;
14139;SDS011;7150;53.514;9.988;2023-03-12T02:33:14;5.77;;;2.80;;
14139;SDS011;7150;53.514;9.988;2023-03-12T02:35:40;7.00;;;3.13;;
14139;SDS011;7150;53.514;9.988;2023-03-12T02:41:12;5.47;;;3.03;;
14139;SDS011;7150;53.514;9.988;2023-03-12T02:44:10;8.37;;;2.80;;
14139;SDS011;7150;53.514;9.988;2023-03-12T02:46:46;4.87;;;2.90;;
14139;SDS011;7150;53.514;9.988;2023-03-12T02:49:13;3.63;;;2.77;;
14139;SDS011;7150;53.514;9.988;2023-03-12T02:51:40;3.77;;;2.77;;
14139;SDS011;7150;53.514;9.988;2023-03-12T02:54:06;6.03;;;2.57;;
14139;SDS011;7150;53.514;9.988;2023-03-12T02:56:33;4.77;;;2.53;;
14139;SDS011;7150;53.514;9.988;2023-03-12T02:58:59;3.57;;;2.70;;
14139;SDS011;7150;53.514;9.988;2023-03-12T03:01:25;6.10;;;2.70;;
14139;SDS011;7150;53.514;9.988;2023-03-12T03:03:51;4.00;;;2.53;;
14139;SDS011;7150;53.514;9.988;2023-03-12T03:06:18;3.63;;;2.67;;
14139;SDS011;7150;53.514;9.988;2023-03-12T03:08:44;7.53;;;2.90;;
14139;SDS011;7150;53.514;9.988;2023-03-12T03:11:10;5.37;;;2.67;;
14139;SDS011;7150;53.514;9.988;2023-03-12T03:13:36;5.27;;;3.20;;
14139;SDS011;7150;53.514;9.988;2023-03-12T03:16:01;3.70;;;2.77;;
14139;SDS011;7150;53.514;9.988;2023-03-12T03:18:27;4.67;;;3.30;;
14139;SDS011;7150;53.514;9.988;2023-03-12T03:20:59;5.10;;;3.07;;
14139;SDS011;7150;53.514;9.988;2023-03-12T03:23:30;4.17;;;2.80;;
14139;SDS011;7150;53.514;9.988;2023-03-12T03:25:56;5.20;;;3.20;;
14139;SDS011;7150;53.514;9.988;2023-03-12T03:28:23;5.30;;;2.90;;
14139;SDS011;7150;53.514;9.988;2023-03-12T03:30:53;5.43;;;3.13;;
14139;SDS011;7150;53.514;9.988;2023-03-12T03:33:22;7.70;;;3.73;;
14139;SDS011;7150;53.514;9.988;2023-03-12T03:35:48;4.87;;;3.00;;
14139;SDS011;7150;53.514;9.988;2023-03-12T03:38:14;5.07;;;3.17;;
14139;SDS011;7150;53.514;9.988;2023-03-12T03:40:39;6.63;;;2.70;;
14139;SDS011;7150;53.514;9.988;2023-03-12T03:43:05;6.63;;;3.27;;
14139;SDS011;7150;53.514;9.988;2023-03-12T03:45:30;7.47;;;3.00;;
14139;SDS011;7150;53.514;9.988;2023-03-12T03:47:56;7.70;;;3.30;;
14139;SDS011;7150;53.514;9.988;2023-03-12T03:50:21;6.57;;;3.50;;
14139;SDS011;7150;53.514;9.988;2023-03-12T03:52:47;4.37;;;3.20;;
14139;SDS011;7150;53.514;9.988;2023-03-12T03:55:12;7.10;;;4.03;;
14139;SDS011;7150;53.514;9.988;2023-03-12T03:57:38;4.20;;;3.53;;
14139;SDS011;7150;53.514;9.988;2023-03-12T04:00:04;6.23;;;3.67;;
14139;SDS011;7150;53.514;9.988;2023-03-12T04:02:33;4.73;;;3.47;;
14139;SDS011;7150;53.514;9.988;2023-03-12T04:04:59;6.33;;;3.77;;
14139;SDS011;7150;53.514;9.988;2023-03-12T04:07:25;5.33;;;3.60;;
14139;SDS011;7150;53.514;9.988;2023-03-12T04:09:51;6.67;;;3.40;;
14139;SDS011;7150;53.514;9.988;2023-03-12T04:12:16;5.87;;;3.40;;
14139;SDS011;7150;53.514;9.988;2023-03-12T04:14:42;8.90;;;3.50;;
14139;SDS011;7150;53.514;9.988;2023-03-12T04:17:07;4.93;;;3.37;;
14139;SDS011;7150;53.514;9.988;2023-03-12T04:19:33;4.73;;;3.30;;
14139;SDS011;7150;53.514;9.988;2023-03-12T04:21:59;6.60;;;3.03;;
14139;SDS011;7150;53.514;9.988;2023-03-12T04:24:24;7.00;;;3.20;;
14139;SDS011;7150;53.514;9.988;2023-03-12T04:26:50;5.60;;;3.17;;
14139;SDS011;7150;53.514;9.988;2023-03-12T04:29:16;7.07;;;3.93;;
14139;SDS011;7150;53.514;9.988;2023-03-12T04:31:42;5.90;;;3.33;;
14139;SDS011;7150;53.514;9.988;2023-03-12T04:34:08;6.77;;;3.30;;
14139;SDS011;7150;53.514;9.988;2023-03-12T04:36:34;9.57;;;3.30;;
14139;SDS011;7150;53.514;9.988;2023-03-12T04:38:59;6.93;;;3.73;;
14139;SDS011;7150;53.514;9.988;2023-03-12T04:41:26;8.90;;;3.90;;
14139;SDS011;7150;53.514;9.988;2023-03-12T04:43:51;7.20;;;4.20;;
14139;SDS011;7150;53.514;9.988;2023-03-12T04:46:17;6.80;;;3.70;;
14139;SDS011;7150;53.514;9.988;2023-03-12T04:48:43;7.53;;;4.00;;
14139;SDS011;7150;53.514;9.988;2023-03-12T04:51:08;6.27;;;4.53;;
14139;SDS011;7150;53.514;9.988;2023-03-12T04:53:34;5.70;;;3.80;;
14139;SDS011;7150;53.514;9.988;2023-03-12T04:55:59;6.90;;;3.70;;
14139;SDS011;7150;53.514;9.988;2023-03-12T04:58:25;9.00;;;3.97;;
14139;SDS011;7150;53.514;9.988;2023-03-12T05:00:50;7.80;;;4.30;;
14139;SDS011;7150;53.514;9.988;2023-03-12T05:03:16;5.57;;;4.50;;
14139;SDS011;7150;53.514;9.988;2023-03-12T05:05:42;8.87;;;5.00;;
14139;SDS011;7150;53.514;9.988;2023-03-12T05:08:07;6.90;;;4.30;;
14139;SDS011;7150;53.514;9.988;2023-03-12T05:10:33;7.00;;;4.30;;
14139;SDS011;7150;53.514;9.988;2023-03-12T05:12:59;8.43;;;4.37;;
14139;SDS011;7150;53.514;9.988;2023-03-12T05:15:24;8.70;;;4.63;;
14139;SDS011;7150;53.514;9.988;2023-03-12T05:17:50;8.93;;;4.67;;
14139;SDS011;7150;53.514;9.988;2023-03-12T05:20:16;7.83;;;4.47;;
14139;SDS011;7150;53.514;9.988;2023-03-12T05:22:41;6.00;;;3.80;;
14139;SDS011;7150;53.514;9.988;2023-03-12T05:25:07;8.47;;;4.93;;
14139;SDS011;7150;53.514;9.988;2023-03-12T05:27:34;7.37;;;4.37;;
14139;SDS011;7150;53.514;9.988;2023-03-12T05:30:00;10.47;;;5.33;;
14139;SDS011;7150;53.514;9.988;2023-03-12T05:32:25;11.40;;;4.83;;
14139;SDS011;7150;53.514;9.988;2023-03-12T05:34:51;6.60;;;4.27;;
14139;SDS011;7150;53.514;9.988;2023-03-12T05:37:16;6.00;;;4.43;;
14139;SDS011;7150;53.514;9.988;2023-03-12T05:39:42;6.67;;;4.53;;
14139;SDS011;7150;53.514;9.988;2023-03-12T05:42:11;6.00;;;4.40;;
14139;SDS011;7150;53.514;9.988;2023-03-12T05:44:37;8.57;;;4.60;;
14139;SDS011;7150;53.514;9.988;2023-03-12T05:47:03;9.23;;;4.60;;
14139;SDS011;7150;53.514;9.988;2023-03-12T05:49:29;6.03;;;4.60;;
14139;SDS011;7150;53.514;9.988;2023-03-12T05:51:54;8.87;;;5.23;;
14139;SDS011;7150;53.514;9.988;2023-03-12T05:54:20;6.63;;;4.70;;
14139;SDS011;7150;53.514;9.988;2023-03-12T05:56:45;8.47;;;4.77;;
14139;SDS011;7150;53.514;9.988;2023-03-12T05:59:11;8.00;;;4.87;;
14139;SDS011;7150;53.514;9.988;2023-03-12T06:01:37;6.73;;;4.40;;
14139;SDS011;7150;53.514;9.988;2023-03-12T06:04:02;7.93;;;5.00;;
14139;SDS011;7150;53.514;9.988;2023-03-12T06:06:29;8.80;;;5.23;;
14139;SDS011;7150;53.514;9.988;2023-03-12T06:08:55;8.97;;;4.83;;
14139;SDS011;7150;53.514;9.988;2023-03-12T06:11:21;10.93;;;4.90;;
14139;SDS011;7150;53.514;9.988;2023-03-12T06:13:46;9.00;;;4.27;;
14139;SDS011;7150;53.514;9.988;2023-03-12T06:16:17;10.20;;;4.67;;
14139;SDS011;7150;53.514;9.988;2023-03-12T06:18:45;7.10;;;4.47;;
14139;SDS011;7150;53.514;9.988;2023-03-12T06:21:12;8.18;;;4.63;;
14139;SDS011;7150;53.514;9.988;2023-03-12T06:23:42;8.50;;;4.97;;
14139;SDS011;7150;53.514;9.988;2023-03-12T06:26:09;8.00;;;4.80;;
14139;SDS011;7150;53.514;9.988;2023-03-12T06:28:35;6.40;;;4.77;;
14139;SDS011;7150;53.514;9.988;2023-03-12T06:31:01;7.53;;;5.17;;
14139;SDS011;7150;53.514;9.988;2023-03-12T06:33:27;10.13;;;5.10;;
14139;SDS011;7150;53.514;9.988;2023-03-12T06:35:54;8.43;;;5.40;;
14139;SDS011;7150;53.514;9.988;2023-03-12T06:38:21;6.57;;;4.70;;
14139;SDS011;7150;53.514;9.988;2023-03-12T06:40:57;6.63;;;4.53;;
14139;SDS011;7150;53.514;9.988;2023-03-12T06:43:30;7.27;;;4.23;;
14139;SDS011;7150;53.514;9.988;2023-03-12T06:45:57;7.53;;;4.43;;
14139;SDS011;7150;53.514;9.988;2023-03-12T06:48:24;7.20;;;4.50;;
14139;SDS011;7150;53.514;9.988;2023-03-12T06:50:51;6.43;;;4.90;;
14139;SDS011;7150;53.514;9.988;2023-03-12T06:53:17;6.10;;;4.57;;
14139;SDS011;7150;53.514;9.988;2023-03-12T06:55:43;12.70;;;4.43;;
14139;SDS011;7150;53.514;9.988;2023-03-12T06:58:09;7.20;;;4.50;;
14139;SDS011;7150;53.514;9.988;2023-03-12T07:00:35;8.63;;;4.70;;
14139;SDS011;7150;53.514;9.988;2023-03-12T07:03:01;4.97;;;3.87;;
14139;SDS011;7150;53.514;9.988;2023-03-12T07:05:26;7.53;;;4.30;;
14139;SDS011;7150;53.514;9.988;2023-03-12T07:07:52;12.20;;;5.17;;
14139;SDS011;7150;53.514;9.988;2023-03-12T07:10:17;10.90;;;4.03;;
14139;SDS011;7150;53.514;9.988;2023-03-12T07:12:43;6.20;;;4.10;;
14139;SDS011;7150;53.514;9.988;2023-03-12T07:15:09;6.53;;;3.87;;
14139;SDS011;7150;53.514;9.988;2023-03-12T07:17:36;7.27;;;3.77;;
14139;SDS011;7150;53.514;9.988;2023-03-12T07:20:01;5.87;;;4.00;;
14139;SDS011;7150;53.514;9.988;2023-03-12T07:22:27;8.70;;;4.17;;
14139;SDS011;7150;53.514;9.988;2023-03-12T07:24:52;5.40;;;3.87;;
14139;SDS011;7150;53.514;9.988;2023-03-12T07:27:18;5.83;;;3.60;;
14139;SDS011;7150;53.514;9.988;2023-03-12T07:29:43;5.80;;;3.23;;
14139;SDS011;7150;53.514;9.988;2023-03-12T07:32:09;7.57;;;3.50;;
14139;SDS011;7150;53.514;9.988;2023-03-12T07:34:36;4.50;;;3.10;;
14139;SDS011;7150;53.514;9.988;2023-03-12T07:37:01;6.70;;;3.43;;
14139;SDS011;7150;53.514;9.988;2023-03-12T07:39:28;8.23;;;3.67;;
14139;SDS011;7150;53.514;9.988;2023-03-12T07:41:53;6.83;;;3.43;;
14139;SDS011;7150;53.514;9.988;2023-03-12T07:44:19;5.27;;;3.40;;
14139;SDS011;7150;53.514;9.988;2023-03-12T07:46:44;5.97;;;3.80;;
14139;SDS011;7150;53.514;9.988;2023-03-12T07:49:10;6.37;;;3.07;;
14139;SDS011;7150;53.514;9.988;2023-03-12T07:51:35;4.23;;;3.30;;
14139;SDS011;7150;53.514;9.988;2023-03-12T07:54:01;5.77;;;3.80;;
14139;SDS011;7150;53.514;9.988;2023-03-12T07:56:26;4.73;;;3.27;;
14139;SDS011;7150;53.514;9.988;2023-03-12T07:58:52;6.17;;;3.40;;
14139;SDS011;7150;53.514;9.988;2023-03-12T08:01:17;5.33;;;2.83;;
14139;SDS011;7150;53.514;9.988;2023-03-12T08:03:43;5.97;;;3.10;;
14139;SDS011;7150;53.514;9.988;2023-03-12T08:06:09;5.77;;;3.20;;
14139;SDS011;7150;53.514;9.988;2023-03-12T08:08:35;5.13;;;3.17;;
14139;SDS011;7150;53.514;9.988;2023-03-12T08:11:05;3.63;;;2.87;;
14139;SDS011;7150;53.514;9.988;2023-03-12T08:13:31;4.27;;;3.07;;
14139;SDS011;7150;53.514;9.988;2023-03-12T08:15:56;5.40;;;3.30;;
14139;SDS011;7150;53.514;9.988;2023-03-12T08:18:22;7.77;;;3.73;;
14139;SDS011;7150;53.514;9.988;2023-03-12T08:20:49;7.47;;;3.10;;
14139;SDS011;7150;53.514;9.988;2023-03-12T08:23:15;5.17;;;3.13;;
14139;SDS011;7150;53.514;9.988;2023-03-12T08:25:43;7.00;;;3.20;;
14139;SDS011;7150;53.514;9.988;2023-03-12T08:28:10;4.53;;;3.60;;
14139;SDS011;7150;53.514;9.988;2023-03-12T08:30:35;7.30;;;3.33;;
14139;SDS011;7150;53.514;9.988;2023-03-12T08:33:00;8.13;;;3.23;;
14139;SDS011;7150;53.514;9.988;2023-03-12T08:35:26;5.80;;;3.43;;
14139;SDS011;7150;53.514;9.988;2023-03-12T08:37:51;5.60;;;3.07;;
14139;SDS011;7150;53.514;9.988;2023-03-12T08:40:17;4.90;;;3.60;;
14139;SDS011;7150;53.514;9.988;2023-03-12T08:42:43;5.60;;;3.53;;
14139;SDS011;7150;53.514;9.988;2023-03-12T08:45:10;8.07;;;3.77;;
14139;SDS011;7150;53.514;9.988;2023-03-12T08:47:37;6.13;;;3.80;;
14139;SDS011;7150;53.514;9.988;2023-03-12T08:50:05;5.10;;;3.20;;
14139;SDS011;7150;53.514;9.988;2023-03-12T08:52:32;6.17;;;3.03;;
14139;SDS011;7150;53.514;9.988;2023-03-12T08:54:57;5.07;;;3.00;;
14139;SDS011;7150;53.514;9.988;2023-03-12T08:57:22;6.70;;;3.10;;
14139;SDS011;7150;53.514;9.988;2023-03-12T08:59:48;4.53;;;2.97;;
14139;SDS011;7150;53.514;9.988;2023-03-12T09:02:13;7.30;;;3.30;;
14139;SDS011;7150;53.514;9.988;2023-03-12T09:04:39;5.43;;;2.80;;
14139;SDS011;7150;53.514;9.988;2023-03-12T09:07:04;4.77;;;3.23;;
14139;SDS011;7150;53.514;9.988;2023-03-12T09:09:30;6.30;;;2.87;;
14139;SDS011;7150;53.514;9.988;2023-03-12T09:11:56;6.03;;;3.20;;
14139;SDS011;7150;53.514;9.988;2023-03-12T09:14:21;5.83;;;3.00;;
14139;SDS011;7150;53.514;9.988;2023-03-12T09:16:47;3.90;;;2.37;;
14139;SDS011;7150;53.514;9.988;2023-03-12T09:19:13;6.77;;;2.93;;
14139;SDS011;7150;53.514;9.988;2023-03-12T09:21:39;5.20;;;3.27;;
14139;SDS011;7150;53.514;9.988;2023-03-12T09:24:04;6.83;;;2.80;;
14139;SDS011;7150;53.514;9.988;2023-03-12T09:26:31;5.97;;;3.10;;
14139;SDS011;7150;53.514;9.988;2023-03-12T09:28:56;5.23;;;2.83;;
14139;SDS011;7150;53.514;9.988;2023-03-12T09:31:23;6.40;;;3.27;;
14139;SDS011;7150;53.514;9.988;2023-03-12T09:33:49;3.60;;;2.50;;
14139;SDS011;7150;53.514;9.988;2023-03-12T09:36:15;4.87;;;2.83;;
14139;SDS011;7150;53.514;9.988;2023-03-12T09:38:41;6.97;;;3.07;;
14139;SDS011;7150;53.514;9.988;2023-03-12T09:41:13;7.33;;;3.13;;
14139;SDS011;7150;53.514;9.988;2023-03-12T09:46:28;4.47;;;2.50;;
14139;SDS011;7150;53.514;9.988;2023-03-12T09:49:18;6.13;;;2.77;;
14139;SDS011;7150;53.514;9.988;2023-03-12T09:52:21;4.43;;;2.50;;
14139;SDS011;7150;53.514;9.988;2023-03-12T09:55:01;4.80;;;3.30;;
14139;SDS011;7150;53.514;9.988;2023-03-12T09:57:31;6.07;;;3.30;;
14139;SDS011;7150;53.514;9.988;2023-03-12T09:59:57;4.70;;;2.50;;
14139;SDS011;7150;53.514;9.988;2023-03-12T10:02:38;6.47;;;3.00;;
14139;SDS011;7150;53.514;9.988;2023-03-12T10:08:46;3.63;;;2.60;;
14139;SDS011;7150;53.514;9.988;2023-03-12T10:14:28;4.50;;;2.80;;
14139;SDS011;7150;53.514;9.988;2023-03-12T10:23:20;5.53;;;2.77;;
14139;SDS011;7150;53.514;9.988;2023-03-12T10:25:59;7.03;;;2.87;;
14139;SDS011;7150;53.514;9.988;2023-03-12T10:30:58;3.40;;;2.60;;
14139;SDS011;7150;53.514;9.988;2023-03-12T10:33:43;5.83;;;3.03;;
14139;SDS011;7150;53.514;9.988;2023-03-12T10:36:17;4.83;;;2.87;;
14139;SDS011;7150;53.514;9.988;2023-03-12T10:38:48;3.80;;;2.47;;
14139;SDS011;7150;53.514;9.988;2023-03-12T10:41:15;3.67;;;2.20;;
14139;SDS011;7150;53.514;9.988;2023-03-12T10:43:45;5.30;;;2.60;;
14139;SDS011;7150;53.514;9.988;2023-03-12T10:46:23;4.50;;;2.90;;
14139;SDS011;7150;53.514;9.988;2023-03-12T10:51:56;6.03;;;2.40;;
14139;SDS011;7150;53.514;9.988;2023-03-12T10:54:33;3.80;;;2.53;;
14139;SDS011;7150;53.514;9.988;2023-03-12T10:57:04;3.40;;;2.30;;
14139;SDS011;7150;53.514;9.988;2023-03-12T10:59:35;4.87;;;2.60;;
14139;SDS011;7150;53.514;9.988;2023-03-12T11:02:20;5.00;;;2.33;;
14139;SDS011;7150;53.514;9.988;2023-03-12T11:05:22;4.57;;;2.37;;
14139;SDS011;7150;53.514;9.988;2023-03-12T11:07:53;4.57;;;2.87;;
14139;SDS011;7150;53.514;9.988;2023-03-12T11:10:20;5.47;;;2.57;;
14139;SDS011;7150;53.514;9.988;2023-03-12T11:12:58;8.67;;;2.77;;
14139;SDS011;7150;53.514;9.988;2023-03-12T11:15:30;4.00;;;2.57;;
14139;SDS011;7150;53.514;9.988;2023-03-12T11:18:22;3.60;;;2.17;;
14139;SDS011;7150;53.514;9.988;2023-03-12T11:20:52;6.40;;;2.53;;
14139;SDS011;7150;53.514;9.988;2023-03-12T11:23:36;3.37;;;2.57;;
14139;SDS011;7150;53.514;9.988;2023-03-12T11:28:45;3.57;;;2.60;;
14139;SDS011;7150;53.514;9.988;2023-03-12T11:31:21;5.53;;;2.80;;
14139;SDS011;7150;53.514;9.988;2023-03-12T11:33:53;4.23;;;2.53;;
14139;SDS011;7150;53.514;9.988;2023-03-12T11:39:10;3.47;;;2.20;;
14139;SDS011;7150;53.514;9.988;2023-03-12T11:41:53;5.97;;;2.20;;
14139;SDS011;7150;53.514;9.988;2023-03-12T11:44:52;2.87;;;1.97;;
14139;SDS011;7150;53.514;9.988;2023-03-12T11:47:34;5.30;;;2.07;;
14139;SDS011;7150;53.514;9.988;2023-03-12T11:50:14;3.23;;;2.23;;
14139;SDS011;7150;53.514;9.988;2023-03-12T11:53:08;3.53;;;2.27;;
14139;SDS011;7150;53.514;9.988;2023-03-12T11:59:00;4.17;;;2.10;;
14139;SDS011;7150;53.514;9.988;2023-03-12T12:01:35;4.00;;;2.20;;
14139;SDS011;7150;53.514;9.988;2023-03-12T12:04:41;3.00;;;1.80;;
14139;SDS011;7150;53.514;9.988;2023-03-12T12:07:38;3.73;;;1.87;;
14139;SDS011;7150;53.514;9.988;2023-03-12T12:10:20;2.70;;;1.80;;
14139;SDS011;7150;53.514;9.988;2023-03-12T12:18:13;2.40;;;1.87;;
14139;SDS011;7150;53.514;9.988;2023-03-12T12:20:57;2.43;;;1.73;;
14139;SDS011;7150;53.514;9.988;2023-03-12T12:26:11;4.87;;;1.77;;
14139;SDS011;7150;53.514;9.988;2023-03-12T12:31:29;4.50;;;1.97;;
14139;SDS011;7150;53.514;9.988;2023-03-12T12:34:14;3.03;;;1.97;;
14139;SDS011;7150;53.514;9.988;2023-03-12T12:36:51;2.73;;;1.57;;
14139;SDS011;7150;53.514;9.988;2023-03-12T12:39:28;3.03;;;1.67;;
14139;SDS011;7150;53.514;9.988;2023-03-12T12:41:58;5.50;;;1.80;;
14139;SDS011;7150;53.514;9.988;2023-03-12T12:44:30;4.13;;;2.03;;
14139;SDS011;7150;53.514;9.988;2023-03-12T12:47:00;3.90;;;1.80;;
14139;SDS011;7150;53.514;9.988;2023-03-12T12:52:04;2.00;;;1.40;;
14139;SDS011;7150;53.514;9.988;2023-03-12T12:57:21;5.23;;;1.90;;
14139;SDS011;7150;53.514;9.988;2023-03-12T13:02:44;4.97;;;1.60;;
14139;SDS011;7150;53.514;9.988;2023-03-12T13:24:08;3.57;;;1.80;;
14139;SDS011;7150;53.514;9.988;2023-03-12T13:29:48;3.97;;;1.80;;
14139;SDS011;7150;53.514;9.988;2023-03-12T13:40:32;2.73;;;1.33;;
14139;SDS011;7150;53.514;9.988;2023-03-12T13:43:12;3.57;;;1.60;;
14139;SDS011;7150;53.514;9.988;2023-03-12T13:48:25;1.97;;;1.57;;
14139;SDS011;7150;53.514;9.988;2023-03-12T13:50:52;3.43;;;1.70;;
14139;SDS011;7150;53.514;9.988;2023-03-12T13:53:24;4.57;;;1.70;;
14139;SDS011;7150;53.514;9.988;2023-03-12T13:56:00;2.67;;;1.97;;
14139;SDS011;7150;53.514;9.988;2023-03-12T13:58:41;2.93;;;1.43;;
14139;SDS011;7150;53.514;9.988;2023-03-12T14:01:29;5.40;;;1.73;;
14139;SDS011;7150;53.514;9.988;2023-03-12T14:04:05;4.20;;;2.00;;
14139;SDS011;7150;53.514;9.988;2023-03-12T14:06:36;5.33;;;1.77;;
14139;SDS011;7150;53.514;9.988;2023-03-12T14:09:24;2.60;;;1.73;;
14139;SDS011;7150;53.514;9.988;2023-03-12T14:11:56;2.43;;;1.53;;
14139;SDS011;7150;53.514;9.988;2023-03-12T14:17:32;4.07;;;1.67;;
14139;SDS011;7150;53.514;9.988;2023-03-12T14:20:16;2.80;;;1.70;;
14139;SDS011;7150;53.514;9.988;2023-03-12T14:22:45;3.50;;;1.70;;
14139;SDS011;7150;53.514;9.988;2023-03-12T14:25:16;2.27;;;1.43;;
14139;SDS011;7150;53.514;9.988;2023-03-12T14:27:46;3.43;;;1.87;;
14139;SDS011;7150;53.514;9.988;2023-03-12T14:30:15;4.20;;;1.70;;
14139;SDS011;7150;53.514;9.988;2023-03-12T14:32:46;4.30;;;1.90;;
14139;SDS011;7150;53.514;9.988;2023-03-12T14:35:20;7.23;;;2.00;;
14139;SDS011;7150;53.514;9.988;2023-03-12T14:38:23;5.97;;;2.27;;
14139;SDS011;7150;53.514;9.988;2023-03-12T14:43:40;5.53;;;1.97;;
14139;SDS011;7150;53.514;9.988;2023-03-12T14:46:43;3.67;;;1.77;;
14139;SDS011;7150;53.514;9.988;2023-03-12T14:48:58;4.57;;;1.97;;
14139;SDS011;7150;53.514;9.988;2023-03-12T14:51:25;2.80;;;2.00;;
14139;SDS011;7150;53.514;9.988;2023-03-12T14:53:52;4.43;;;2.30;;
14139;SDS011;7150;53.514;9.988;2023-03-12T14:56:31;2.90;;;2.13;;
14139;SDS011;7150;53.514;9.988;2023-03-12T14:59:00;4.63;;;1.87;;
14139;SDS011;7150;53.514;9.988;2023-03-12T15:01:43;2.63;;;1.80;;
14139;SDS011;7150;53.514;9.988;2023-03-12T15:04:12;3.17;;;1.83;;
14139;SDS011;7150;53.514;9.988;2023-03-12T15:06:47;4.57;;;2.20;;
14139;SDS011;7150;53.514;9.988;2023-03-12T15:09:18;7.20;;;2.43;;
14139;SDS011;7150;53.514;9.988;2023-03-12T15:11:50;5.83;;;2.10;;
14139;SDS011;7150;53.514;9.988;2023-03-12T15:14:18;3.40;;;2.13;;
14139;SDS011;7150;53.514;9.988;2023-03-12T15:16:45;2.33;;;1.70;;
14139;SDS011;7150;53.514;9.988;2023-03-12T15:19:12;3.33;;;1.80;;
14139;SDS011;7150;53.514;9.988;2023-03-12T15:21:40;4.33;;;2.33;;
14139;SDS011;7150;53.514;9.988;2023-03-12T15:24:05;4.47;;;2.47;;
14139;SDS011;7150;53.514;9.988;2023-03-12T15:26:35;3.00;;;2.10;;
14139;SDS011;7150;53.514;9.988;2023-03-12T15:31:50;3.80;;;2.50;;
14139;SDS011;7150;53.514;9.988;2023-03-12T15:34:28;4.20;;;2.63;;
14139;SDS011;7150;53.514;9.988;2023-03-12T15:36:56;7.23;;;2.20;;
14139;SDS011;7150;53.514;9.988;2023-03-12T15:39:24;2.73;;;1.90;;
14139;SDS011;7150;53.514;9.988;2023-03-12T15:42:06;3.60;;;2.73;;
14139;SDS011;7150;53.514;9.988;2023-03-12T15:47:21;3.90;;;2.60;;
14139;SDS011;7150;53.514;9.988;2023-03-12T15:49:53;3.40;;;2.07;;
14139;SDS011;7150;53.514;9.988;2023-03-12T15:52:27;6.27;;;2.40;;
14139;SDS011;7150;53.514;9.988;2023-03-12T15:55:06;2.97;;;2.30;;
14139;SDS011;7150;53.514;9.988;2023-03-12T15:57:45;4.83;;;2.60;;
14139;SDS011;7150;53.514;9.988;2023-03-12T16:05:20;4.07;;;2.40;;
14139;SDS011;7150;53.514;9.988;2023-03-12T16:07:48;2.40;;;2.17;;
14139;SDS011;7150;53.514;9.988;2023-03-12T16:10:14;4.27;;;2.47;;
14139;SDS011;7150;53.514;9.988;2023-03-12T16:12:42;3.23;;;2.37;;
14139;SDS011;7150;53.514;9.988;2023-03-12T16:15:26;2.73;;;2.27;;
14139;SDS011;7150;53.514;9.988;2023-03-12T16:17:54;2.73;;;2.40;;
14139;SDS011;7150;53.514;9.988;2023-03-12T16:20:19;2.73;;;1.97;;
14139;SDS011;7150;53.514;9.988;2023-03-12T16:22:45;3.27;;;2.17;;
14139;SDS011;7150;53.514;9.988;2023-03-12T16:25:10;2.60;;;2.40;;
14139;SDS011;7150;53.514;9.988;2023-03-12T16:27:38;3.17;;;2.67;;
14139;SDS011;7150;53.514;9.988;2023-03-12T16:30:18;5.63;;;2.37;;
14139;SDS011;7150;53.514;9.988;2023-03-12T16:32:48;2.93;;;2.60;;
14139;SDS011;7150;53.514;9.988;2023-03-12T16:35:14;3.67;;;2.50;;
14139;SDS011;7150;53.514;9.988;2023-03-12T16:37:41;3.97;;;2.73;;
14139;SDS011;7150;53.514;9.988;2023-03-12T16:40:07;3.17;;;2.67;;
14139;SDS011;7150;53.514;9.988;2023-03-12T16:42:35;4.07;;;2.90;;
14139;SDS011;7150;53.514;9.988;2023-03-12T16:45:01;4.93;;;2.80;;
14139;SDS011;7150;53.514;9.988;2023-03-12T16:47:27;3.43;;;2.77;;
14139;SDS011;7150;53.514;9.988;2023-03-12T16:49:54;6.97;;;3.67;;
14139;SDS011;7150;53.514;9.988;2023-03-12T16:52:23;3.83;;;2.67;;
14139;SDS011;7150;53.514;9.988;2023-03-12T16:54:50;4.30;;;2.90;;
14139;SDS011;7150;53.514;9.988;2023-03-12T16:57:26;4.53;;;2.67;;
14139;SDS011;7150;53.514;9.988;2023-03-12T16:59:56;3.70;;;2.80;;